Time;durP1;ratioP1;P1;durP2;ratioP2;P2;SDS_P1;SDS_P2;PMS_P1;PMS_P2;Temp;Humidity;BMP_temperature;BMP_pressure;BME280_temperature;BME280_humidity;BME280_pressure;Samples;Min_cycle;Max_cycle;Signal;HPM_P1;HPM_P2
2022/12/18 00:02:01;;;;;;;131.50;34.28;;;;;;;-5.72;100.00;102856.16;5075070;28;20135;-76
2022/12/18 00:04:27;;;;;;;125.25;33.58;;;;;;;-5.69;100.00;102858.78;5093848;28;20071;-76
2022/12/18 00:06:53;;;;;;;109.72;32.15;;;;;;;-5.67;100.00;102858.81;5075610;28;20040;-76
2022/12/18 00:09:19;;;;;;;146.98;37.53;;;;;;;-5.64;100.00;102860.53;5093516;28;20028;-75
2022/12/18 00:11:44;;;;;;;128.25;34.50;;;;;;;-5.61;100.00;102852.78;5093407;28;20043;-76
2022/12/18 00:14:13;;;;;;;152.10;37.33;;;;;;;-5.59;100.00;102851.09;5093335;28;20168;-76
2022/12/18 00:16:39;;;;;;;110.63;33.70;;;;;;;-5.58;100.00;102850.22;5093283;28;20077;-75
2022/12/18 00:19:05;;;;;;;115.00;35.85;;;;;;;-5.58;100.00;102848.50;5093417;28;20024;-76
2022/12/18 00:21:32;;;;;;;134.27;32.17;;;;;;;-5.55;100.00;102847.69;5093645;28;20055;-76
2022/12/18 00:23:59;;;;;;;138.60;35.83;;;;;;;-5.55;100.00;102845.09;5093241;28;20028;-75
2022/12/18 00:26:28;;;;;;;129.93;34.40;;;;;;;-5.53;100.00;102851.13;5093228;28;20480;-77
2022/12/18 00:28:55;;;;;;;112.28;31.50;;;;;;;-5.55;100.00;102848.53;5092829;28;20039;-76
2022/12/18 00:31:23;;;;;;;120.53;32.67;;;;;;;-5.54;100.00;102844.19;5093331;28;20032;-75
2022/12/18 00:33:48;;;;;;;112.80;32.83;;;;;;;-5.55;100.00;102851.13;5093261;28;20468;-76
2022/12/18 00:36:17;;;;;;;115.03;34.47;;;;;;;-5.56;100.00;102840.75;5092833;28;20036;-75
2022/12/18 00:38:44;;;;;;;115.35;32.63;;;;;;;-5.58;100.00;102847.63;5093256;28;20029;-78
2022/12/18 00:41:11;;;;;;;109.20;33.78;;;;;;;-5.58;100.00;102839.84;5093024;28;20024;-76
2022/12/18 00:43:37;;;;;;;120.43;34.58;;;;;;;-5.59;100.00;102840.72;5074875;28;20441;-76
2022/12/18 00:46:03;;;;;;;108.80;31.80;;;;;;;-5.58;100.00;102852.81;5092971;28;20028;-76
2022/12/18 00:48:29;;;;;;;109.57;32.33;;;;;;;-5.59;100.00;102851.94;5093434;28;20043;-75
2022/12/18 00:50:54;;;;;;;117.63;31.88;;;;;;;-5.61;100.00;102855.38;5093352;28;20430;-76
2022/12/18 00:53:20;;;;;;;116.28;33.15;;;;;;;-5.64;100.00;102851.06;5092866;28;20397;-75
2022/12/18 00:55:46;;;;;;;101.72;32.55;;;;;;;-5.70;100.00;102853.59;5094046;28;20050;-75
2022/12/18 00:58:13;;;;;;;95.05;29.95;;;;;;;-5.73;100.00;102862.22;5097394;28;20063;-75
2022/12/18 01:00:39;;;;;;;104.72;33.10;;;;;;;-5.73;100.00;102862.22;5096885;28;20081;-75
2022/12/18 01:03:05;;;;;;;95.15;29.55;;;;;;;-5.75;100.00;102861.31;5096659;28;20052;-75
2022/12/18 01:05:31;;;;;;;107.20;31.20;;;;;;;-5.75;100.00;102860.44;5096852;28;20036;-75
2022/12/18 01:07:56;;;;;;;109.30;32.45;;;;;;;-5.77;100.00;102862.16;5096816;28;20036;-75
2022/12/18 01:10:22;;;;;;;101.90;30.20;;;;;;;-5.80;100.00;102860.41;5078927;28;20436;-75
2022/12/18 01:12:48;;;;;;;103.53;31.33;;;;;;;-5.80;100.00;102859.53;5096258;28;20038;-76
2022/12/18 01:15:14;;;;;;;112.20;32.65;;;;;;;-5.79;100.00;102858.66;5097353;28;20036;-75
2022/12/18 01:17:40;;;;;;;105.03;32.08;;;;;;;-5.78;100.00;102866.47;5096490;28;20030;-76
2022/12/18 01:20:06;;;;;;;111.28;30.67;;;;;;;-5.77;100.00;102867.34;5096499;28;20384;-75
2022/12/18 01:22:35;;;;;;;107.22;32.25;;;;;;;-5.80;100.00;102865.59;5096219;28;20040;-75
2022/12/18 01:25:01;;;;;;;114.50;33.20;;;;;;;-5.81;100.00;102865.56;5096846;28;20024;-76
2022/12/18 01:27:26;;;;;;;126.00;32.05;;;;;;;-5.83;100.00;102865.56;5096203;28;20541;-76
2022/12/18 01:29:52;;;;;;;110.57;33.70;;;;;;;-5.83;100.00;102859.50;5096394;28;20357;-76
2022/12/18 01:32:17;;;;;;;109.20;32.10;;;;;;;-5.85;100.00;102860.34;5096272;28;20361;-75
2022/12/18 01:34:42;;;;;;;116.45;33.10;;;;;;;-5.86;100.00;102857.75;5096480;28;20043;-75
2022/12/18 01:37:08;;;;;;;101.53;30.80;;;;;;;-5.89;100.00;102866.34;5096726;28;20028;-76
2022/12/18 01:39:33;;;;;;;119.57;32.13;;;;;;;-5.89;100.00;102873.28;5096854;28;20051;-75
2022/12/18 01:42:02;;;;;;;114.95;31.17;;;;;;;-5.91;100.00;102867.19;5096218;28;20149;-76
2022/12/18 01:44:57;;;;;;;98.68;29.63;;;;;;;-5.91;100.00;102874.97;5096124;28;20138;-76
2022/12/18 01:47:22;;;;;;;122.15;31.50;;;;;;;-5.91;100.00;102878.44;5096753;28;20050;-75
2022/12/18 01:49:48;;;;;;;118.57;32.65;;;;;;;-5.89;100.00;102886.25;5095970;28;20531;-76
2022/12/18 01:52:14;;;;;;;119.47;33.17;;;;;;;-5.85;100.00;102882.84;5095950;28;20028;-76
2022/12/18 01:54:40;;;;;;;117.38;33.83;;;;;;;-5.83;100.00;102885.44;5095889;28;20028;-76
2022/12/18 01:57:05;;;;;;;114.30;31.33;;;;;;;-5.86;100.00;102881.94;5096362;28;20112;-76
2022/12/18 01:59:33;;;;;;;116.28;31.55;;;;;;;-5.85;100.00;102886.28;5095710;28;20039;-77
2022/12/18 02:01:59;;;;;;;125.68;32.50;;;;;;;-5.86;100.00;102888.88;5095629;28;20044;-75
2022/12/18 02:04:27;;;;;;;116.35;32.90;;;;;;;-5.87;100.00;102893.19;5095841;28;20035;-75
2022/12/18 02:07:11;;;;;;;114.18;31.40;;;;;;;-5.83;100.00;102896.69;5095140;28;20032;-75
2022/12/18 02:09:50;;;;;;;122.13;34.08;;;;;;;-5.84;100.00;102889.75;5096263;28;20040;-75
2022/12/18 02:12:21;;;;;;;112.75;30.63;;;;;;;-5.83;100.00;102893.22;5096122;28;20028;-75
2022/12/18 02:15:37;;;;;;;105.35;29.85;;;;;;;-5.83;100.00;102891.50;5095517;28;20043;-76
2022/12/18 02:18:35;;;;;;;105.45;29.25;;;;;;;-5.81;100.00;102889.78;4993515;28;20038;-76
2022/12/18 02:21:40;;;;;;;122.88;31.88;;;;;;;-5.82;100.00;102881.97;5077329;28;20047;-76
2022/12/18 02:24:35;;;;;;;99.78;30.17;;;;;;;-5.83;100.00;102888.03;5095935;28;20107;-76
2022/12/18 02:27:05;;;;;;;113.13;31.27;;;;;;;-5.83;100.00;102882.84;5086282;28;20389;-77
2022/12/18 02:29:34;;;;;;;112.25;30.10;;;;;;;-5.82;100.00;102893.25;5095588;28;20120;-77
2022/12/18 02:32:01;;;;;;;122.13;33.35;;;;;;;-5.79;100.00;102882.91;5095114;28;20107;-76
2022/12/18 02:34:29;;;;;;;117.93;31.58;;;;;;;-5.80;100.00;102885.47;5094952;28;20115;-77
2022/12/18 02:36:57;;;;;;;117.88;31.75;;;;;;;-5.81;100.00;102878.53;5095692;28;20411;-76
2022/12/18 02:39:25;;;;;;;103.78;31.83;;;;;;;-5.84;100.00;102876.78;5095564;28;20078;-76
2022/12/18 02:41:51;;;;;;;102.53;31.15;;;;;;;-5.86;100.00;102861.19;5094721;28;20124;-76
2022/12/18 02:44:17;;;;;;;113.70;31.50;;;;;;;-5.86;100.00;102856.00;5077520;28;20043;-76
2022/12/18 02:46:50;;;;;;;102.63;32.40;;;;;;;-5.84;100.00;102848.25;5095119;28;20384;-77
2022/12/18 02:49:29;;;;;;;114.22;32.63;;;;;;;-5.83;100.00;102850.00;5095435;28;20032;-78
2022/12/18 02:52:04;;;;;;;116.68;31.70;;;;;;;-5.84;100.00;102837.88;5095113;28;20028;-77
2022/12/18 02:54:49;;;;;;;112.13;32.58;;;;;;;-5.80;100.00;102846.56;5095118;28;20085;-76
2022/12/18 02:57:40;;;;;;;106.20;30.27;;;;;;;-5.82;100.00;102838.78;5094457;28;20028;-76
2022/12/18 03:00:10;;;;;;;105.95;30.65;;;;;;;-5.81;100.00;102839.63;5056350;28;20539;-76
2022/12/18 03:02:45;;;;;;;118.30;31.23;;;;;;;-5.81;100.00;102837.91;5094579;28;20085;-77
2022/12/18 03:05:19;;;;;;;117.75;31.25;;;;;;;-5.82;100.00;102828.41;5094557;28;20028;-78
2022/12/18 03:07:53;;;;;;;120.50;32.15;;;;;;;-5.79;100.00;102830.13;5094887;28;20086;-75
2022/12/18 03:10:24;;;;;;;101.50;28.50;;;;;;;-5.83;100.00;102828.41;5094139;28;20395;-75
2022/12/18 03:12:57;;;;;;;;;;;;;;;-5.85;100.00;102826.66;5094606;28;20032;-74
2022/12/18 03:15:28;;;;;;;90.63;27.05;;;;;;;-5.90;100.00;102820.53;5095309;28;20356;-76
2022/12/18 03:18:02;;;;;;;82.65;27.25;;;;;;;-5.95;100.00;102829.13;5093396;28;20024;-77
2022/12/18 03:20:31;;;;;;;84.45;27.65;;;;;;;-6.01;100.00;102824.78;5094428;28;20130;-76
2022/12/18 03:23:06;;;;;;;86.72;27.52;;;;;;;-6.05;100.00;102823.00;5094441;28;20043;-76
2022/12/18 03:25:34;;;;;;;79.07;27.48;;;;;;;-6.08;100.00;102818.66;5094874;28;20109;-77
2022/12/18 03:28:01;;;;;;;98.38;27.85;;;;;;;-6.10;100.00;102825.56;5095573;28;20052;-75
2022/12/18 03:30:30;;;;;;;88.45;28.20;;;;;;;-6.10;100.00;102829.88;5096324;28;20028;-76
2022/12/18 03:33:13;;;;;;;90.00;29.45;;;;;;;-6.09;100.00;102818.63;5096265;28;20032;-77
2022/12/18 03:35:41;;;;;;;91.40;28.17;;;;;;;-6.13;100.00;102822.94;5094683;28;20553;-77
2022/12/18 03:38:07;;;;;;;79.30;26.65;;;;;;;-6.16;100.00;102819.47;5094858;28;20035;-77
2022/12/18 03:40:59;;;;;;;96.10;28.17;;;;;;;-6.22;100.00;102823.69;5093891;28;20036;-76
2022/12/18 03:43:44;;;;;;;;;;;;;;;-6.30;100.00;102815.00;5094827;28;20337;-76
2022/12/18 03:46:19;;;;;;;77.70;24.73;;;;;;;-6.34;100.00;102813.22;5079000;28;19915;-77
2022/12/18 03:48:51;;;;;;;77.05;24.65;;;;;;;-6.38;100.00;102809.69;5094146;28;20085;-77
2022/12/18 03:51:39;;;;;;;80.32;27.70;;;;;;;-6.39;100.00;102810.56;5093789;28;20024;-77
2022/12/18 03:54:08;;;;;;;86.95;27.83;;;;;;;-6.42;100.00;102817.41;5093423;28;20128;-77
2022/12/18 03:56:41;;;;;;;78.70;27.48;;;;;;;-6.46;100.00;102815.66;5075555;28;20035;-76
2022/12/18 03:59:11;;;;;;;95.68;27.52;;;;;;;-6.51;100.00;102812.13;5094023;28;20024;-76
2022/12/18 04:01:42;;;;;;;87.70;25.60;;;;;;;-6.59;100.00;102810.31;5093382;28;20020;-75
2022/12/18 04:04:10;;;;;;;71.47;25.90;;;;;;;-6.67;100.00;102809.34;5093759;28;20036;-76
2022/12/18 04:06:36;;;;;;;81.50;26.60;;;;;;;-6.76;100.00;102820.47;5093537;28;20020;-75
2022/12/18 04:09:02;;;;;;;91.05;27.20;;;;;;;-6.80;100.00;102816.09;5093360;28;20046;-76
2022/12/18 04:11:27;;;;;;;84.53;26.75;;;;;;;-6.81;100.00;102813.47;5093538;28;20028;-76
2022/12/18 04:13:57;;;;;;;85.43;27.05;;;;;;;-6.79;100.00;102816.94;5096262;28;20028;-76
2022/12/18 04:16:24;;;;;;;87.03;27.52;;;;;;;-6.80;100.00;102813.50;5095092;28;20042;-76
2022/12/18 04:18:49;;;;;;;94.47;27.45;;;;;;;-6.82;100.00;102817.78;5093378;28;20028;-76
2022/12/18 04:21:15;;;;;;;90.38;26.85;;;;;;;-6.84;100.00;102821.19;5093028;28;20057;-76
2022/12/18 04:23:40;;;;;;;92.47;29.33;;;;;;;-6.84;100.00;102822.06;5093345;28;20055;-76
2022/12/18 04:26:05;;;;;;;85.90;28.73;;;;;;;-6.85;100.00;102820.34;5093457;28;20053;-76
2022/12/18 04:28:31;;;;;;;105.90;28.85;;;;;;;-6.84;100.00;102824.66;5093072;28;20349;-76
2022/12/18 04:30:56;;;;;;;89.47;28.02;;;;;;;-6.86;100.00;102828.09;5092911;28;20040;-76
2022/12/18 04:33:21;;;;;;;95.85;28.67;;;;;;;-6.91;100.00;102826.31;5093234;28;20039;-76
2022/12/18 04:35:47;;;;;;;88.50;27.13;;;;;;;-6.94;100.00;102833.13;5075076;28;20036;-76
2022/12/18 04:38:13;;;;;;;86.70;29.00;;;;;;;-6.97;100.00;102822.75;5093019;28;20032;-77
2022/12/18 04:40:38;;;;;;;90.68;29.10;;;;;;;-6.98;100.00;102832.22;5092829;28;20040;-75
2022/12/18 04:43:03;;;;;;;106.75;29.55;;;;;;;-7.01;100.00;102829.59;5093036;28;20028;-75
2022/12/18 04:45:31;;;;;;;99.65;28.88;;;;;;;-7.07;100.00;102836.44;5093430;28;20068;-75
2022/12/18 04:48:00;;;;;;;99.63;29.50;;;;;;;-7.11;100.00;102825.13;5074883;28;20338;-75
2022/12/18 04:50:26;;;;;;;82.32;26.70;;;;;;;-7.16;100.00;102824.22;5092857;28;20491;-74
2022/12/18 04:52:52;;;;;;;93.22;28.45;;;;;;;-7.19;100.00;102825.03;5092968;28;20056;-75
2022/12/18 04:55:18;;;;;;;102.90;28.25;;;;;;;-7.22;100.00;102829.31;5074398;28;20078;-74
2022/12/18 04:57:44;;;;;;;99.18;28.98;;;;;;;-7.27;100.00;102824.03;5092967;28;20028;-74
2022/12/18 05:00:10;;;;;;;93.05;29.20;;;;;;;-7.34;100.00;102824.81;5092352;28;20036;-74
2022/12/18 05:02:35;;;;;;;90.35;26.75;;;;;;;-7.39;100.00;102819.53;5093119;28;20468;-76
2022/12/18 05:05:01;;;;;;;95.18;27.88;;;;;;;-7.46;100.00;102818.56;5092857;28;20032;-74
2022/12/18 05:07:26;;;;;;;98.18;28.58;;;;;;;-7.50;100.00;102824.53;5092986;28;20467;-74
2022/12/18 05:09:51;;;;;;;87.75;25.90;;;;;;;-7.56;100.00;102818.41;5093051;28;20043;-74
2022/12/18 05:12:17;;;;;;;98.18;28.55;;;;;;;-7.65;100.00;102819.97;5092503;28;20029;-75
2022/12/18 05:14:42;;;;;;;83.80;25.60;;;;;;;-7.72;100.00;102822.44;5092771;28;20116;-74
2022/12/18 05:17:08;;;;;;;92.72;24.88;;;;;;;-7.83;100.00;102815.38;5074481;28;20441;-75
2022/12/18 05:19:33;;;;;;;81.25;25.45;;;;;;;-7.93;100.00;102816.03;5093146;28;20028;-75
2022/12/18 05:21:59;;;;;;;80.63;24.83;;;;;;;-8.01;100.00;102820.22;5092905;28;20109;-73
2022/12/18 05:24:24;;;;;;;87.22;27.40;;;;;;;-8.09;100.00;102817.50;5092586;28;20028;-74
2022/12/18 05:26:49;;;;;;;85.68;26.13;;;;;;;-8.17;100.00;102812.16;5092512;28;20094;-75
2022/12/18 05:29:15;;;;;;;81.05;25.08;;;;;;;-8.23;100.00;102808.59;5092480;28;20362;-75
2022/12/18 05:31:40;;;;;;;73.20;23.95;;;;;;;-8.29;100.00;102811.09;5092350;28;20434;-74
2022/12/18 05:34:06;;;;;;;76.15;25.20;;;;;;;-8.36;100.00;102800.63;5092541;28;20083;-74
2022/12/18 05:36:32;;;;;;;77.43;25.30;;;;;;;-8.42;100.00;102802.22;5092688;28;20345;-75
2022/12/18 05:38:57;;;;;;;80.13;26.45;;;;;;;-8.51;100.00;102803.81;5092368;28;20079;-74
2022/12/18 05:41:22;;;;;;;72.63;25.75;;;;;;;-8.58;100.00;102801.06;5093059;28;20035;-74
2022/12/18 05:43:48;;;;;;;69.20;23.55;;;;;;;-8.62;100.00;102800.13;5096266;28;20032;-74
2022/12/18 05:46:17;;;;;;;73.50;23.80;;;;;;;-8.66;100.00;102802.63;5096801;28;20028;-75
2022/12/18 05:48:44;;;;;;;69.40;22.65;;;;;;;-8.72;100.00;102798.19;5096575;28;20127;-74
2022/12/18 05:51:14;;;;;;;52.50;21.23;;;;;;;-8.77;100.00;102805.00;5095939;28;20040;-78
2022/12/18 05:53:40;;;;;;;62.33;21.08;;;;;;;-8.83;100.00;102802.28;5095963;28;20028;-74
2022/12/18 05:56:08;;;;;;;68.28;22.42;;;;;;;-8.88;100.00;102797.88;5095526;28;20113;-74
2022/12/18 05:58:34;;;;;;;57.45;22.20;;;;;;;-8.94;100.00;102802.91;5095768;28;20107;-74
2022/12/18 06:01:07;;;;;;;57.03;21.33;;;;;;;-9.00;100.00;102802.78;5077646;28;20135;-74
2022/12/18 06:03:33;;;;;;;51.03;19.02;;;;;;;-9.05;100.00;102802.66;5096680;28;20460;-74
2022/12/18 06:05:58;;;;;;;58.20;20.95;;;;;;;-9.08;100.00;102794.00;5095667;28;20081;-74
2022/12/18 06:08:23;;;;;;;56.13;21.08;;;;;;;-9.11;100.00;102794.78;5095627;28;20126;-74
2022/12/18 06:10:51;;;;;;;55.85;21.25;;;;;;;-9.15;100.00;102784.38;5095637;28;20036;-74
2022/12/18 06:13:17;;;;;;;54.70;21.08;;;;;;;-9.20;100.00;102783.41;5095268;28;20471;-74
2022/12/18 06:15:42;;;;;;;55.38;20.75;;;;;;;-9.23;100.00;102782.47;5095122;28;20111;-74
2022/12/18 06:18:07;;;;;;;57.50;22.00;;;;;;;-9.26;100.00;102768.66;5095832;28;20134;-74
2022/12/18 06:20:33;;;;;;;59.33;20.42;;;;;;;-9.28;100.00;102765.19;5094975;28;20028;-74
2022/12/18 06:22:59;;;;;;;59.10;20.45;;;;;;;-9.31;100.00;102768.56;5095191;28;20047;-74
2022/12/18 06:25:24;;;;;;;57.45;19.35;;;;;;;-9.35;100.00;102765.88;5095552;28;20039;-75
2022/12/18 06:27:49;;;;;;;50.85;20.55;;;;;;;-9.38;100.00;102774.41;5095301;28;20040;-74
2022/12/18 06:30:15;;;;;;;57.00;21.48;;;;;;;-9.42;100.00;102767.44;5095178;28;20484;-76
2022/12/18 06:32:40;;;;;;;55.85;20.85;;;;;;;-9.45;100.00;102764.78;5095177;28;20440;-74
2022/12/18 06:35:06;;;;;;;49.60;20.23;;;;;;;-9.49;100.00;102752.66;5095285;28;20032;-74
2022/12/18 06:37:31;;;;;;;54.25;20.17;;;;;;;-9.51;100.00;102751.75;5095164;28;20115;-74
2022/12/18 06:39:57;;;;;;;61.65;22.10;;;;;;;-9.55;100.00;102755.97;5094971;28;20464;-75
2022/12/18 06:42:23;;;;;;;55.47;20.70;;;;;;;-9.57;100.00;102748.22;5094865;28;20085;-75
2022/12/18 06:44:49;;;;;;;43.65;17.55;;;;;;;-9.57;100.00;102747.31;5094622;28;20480;-74
2022/12/18 06:47:14;;;;;;;44.78;18.40;;;;;;;-9.59;100.00;102736.13;5094910;28;20047;-74
2022/12/18 06:49:39;;;;;;;51.50;18.35;;;;;;;-9.61;100.00;102730.06;5095159;28;20037;-74
2022/12/18 06:52:05;;;;;;;52.30;19.23;;;;;;;-9.61;100.00;102730.06;5094438;28;20028;-73
2022/12/18 06:54:30;;;;;;;52.13;20.50;;;;;;;-9.61;100.00;102724.91;5094730;28;20466;-74
2022/12/18 06:56:56;;;;;;;51.53;19.08;;;;;;;-9.57;100.00;102727.59;5094842;28;20177;-74
2022/12/18 06:59:21;;;;;;;53.53;19.85;;;;;;;-9.53;100.00;102719.94;5094500;28;20028;-75
2022/12/18 07:01:46;;;;;;;62.13;21.10;;;;;;;-9.52;100.00;102722.53;5094621;28;20028;-74
2022/12/18 07:04:12;;;;;;;50.60;20.42;;;;;;;-9.52;100.00;102721.66;5095102;28;20024;-74
2022/12/18 07:06:37;;;;;;;55.78;20.60;;;;;;;-9.53;100.00;102719.94;5094360;28;20062;-75
2022/12/18 07:09:02;;;;;;;50.60;20.02;;;;;;;-9.58;100.00;102710.38;5094128;28;20024;-75
2022/12/18 07:11:28;;;;;;;50.88;18.25;;;;;;;-9.59;100.00;102710.34;5094266;28;20109;-74
2022/12/18 07:13:54;;;;;;;54.63;19.85;;;;;;;-9.61;100.00;102692.28;5094426;28;20336;-74
2022/12/18 07:16:21;;;;;;;43.45;18.52;;;;;;;-9.59;100.00;102695.75;5094290;28;20119;-74
2022/12/18 07:18:46;;;;;;;55.40;21.08;;;;;;;-9.56;100.00;102684.63;5075623;28;20036;-75
2022/12/18 07:21:14;;;;;;;48.17;19.75;;;;;;;-9.52;100.00;102678.72;5094914;28;20050;-74
2022/12/18 07:23:40;;;;;;;56.10;19.90;;;;;;;-9.47;100.00;102664.22;5059253;28;20441;-75
2022/12/18 07:26:08;;;;;;;53.28;19.17;;;;;;;-9.37;100.00;102652.41;5094062;28;20089;-75
2022/12/18 07:28:35;;;;;;;47.63;18.70;;;;;;;-9.29;100.00;102650.84;5093950;28;20042;-75
2022/12/18 07:31:06;;;;;;;46.75;18.08;;;;;;;-9.20;100.00;102645.00;5094374;28;20078;-75
2022/12/18 07:33:32;;;;;;;49.58;20.02;;;;;;;-9.11;100.00;102649.50;5094509;28;20109;-75
2022/12/18 07:35:59;;;;;;;44.08;18.45;;;;;;;-9.02;100.00;102654.81;5094718;28;20069;-75
2022/12/18 07:38:24;;;;;;;53.30;19.10;;;;;;;-8.96;100.00;102651.50;5095111;28;20107;-75
2022/12/18 07:40:50;;;;;;;57.47;20.35;;;;;;;-8.81;100.00;102651.78;5094676;28;20205;-74
2022/12/18 07:43:15;;;;;;;46.75;18.42;;;;;;;-8.81;100.00;102646.63;5094704;28;20035;-74
2022/12/18 07:45:42;;;;;;;38.17;17.52;;;;;;;-8.81;100.00;102654.38;5094011;28;20070;-74
2022/12/18 07:48:08;;;;;;;46.22;17.77;;;;;;;-8.80;100.00;102655.25;5094248;28;20273;-74
2022/12/18 07:50:33;;;;;;;42.63;18.73;;;;;;;-8.80;100.00;102658.69;5075479;28;20479;-74
2022/12/18 07:53:03;;;;;;;41.78;17.85;;;;;;;-8.73;100.00;102664.81;5093304;28;20066;-74
2022/12/18 07:55:29;;;;;;;45.53;17.50;;;;;;;-8.66;100.00;102658.06;5093654;28;20039;-74
2022/12/18 07:57:54;;;;;;;38.90;17.75;;;;;;;-8.66;100.00;102651.19;5093342;28;20040;-73
2022/12/18 08:00:19;;;;;;;51.42;19.80;;;;;;;-8.62;100.00;102655.56;5093350;28;20024;-74
2022/12/18 08:02:45;;;;;;;45.08;17.48;;;;;;;-8.63;100.00;102650.38;5093117;28;20039;-76
2022/12/18 08:05:10;;;;;;;43.20;18.38;;;;;;;-8.61;100.00;102651.28;5092990;28;20080;-73
2022/12/18 08:07:36;;;;;;;51.53;17.95;;;;;;;-8.55;100.00;102649.69;5093537;28;20085;-73
2022/12/18 08:10:02;;;;;;;41.15;18.13;;;;;;;-8.54;100.00;102651.44;5093165;28;20434;-75
2022/12/18 08:12:28;;;;;;;43.03;18.00;;;;;;;-8.53;100.00;102649.72;5093310;28;20035;-75
2022/12/18 08:14:53;;;;;;;45.40;18.00;;;;;;;-8.47;100.00;102646.38;5093178;28;20490;-75
2022/12/18 08:17:19;;;;;;;54.83;19.95;;;;;;;-8.45;100.00;102639.50;5093555;28;20066;-75
2022/12/18 08:19:44;;;;;;;36.28;17.92;;;;;;;-8.41;100.00;102651.63;5093015;28;20028;-73
2022/12/18 08:22:10;;;;;;;46.38;19.35;;;;;;;-8.38;100.00;102649.09;5093410;28;20518;-74
2022/12/18 08:24:35;;;;;;;44.53;19.33;;;;;;;-8.27;100.00;102641.50;5093309;28;20460;-76
2022/12/18 08:27:00;;;;;;;43.88;19.27;;;;;;;-8.22;100.00;102637.31;5093554;28;20085;-75
2022/12/18 08:29:26;;;;;;;46.58;19.23;;;;;;;-8.17;100.00;102631.34;5093835;28;20042;-76
2022/12/18 08:31:51;;;;;;;50.05;19.08;;;;;;;-8.12;100.00;102638.31;5075187;28;20029;-75
2022/12/18 08:34:16;;;;;;;43.35;18.35;;;;;;;-8.09;100.00;102643.50;5093246;28;20028;-75
2022/12/18 08:36:42;;;;;;;45.55;19.65;;;;;;;-8.05;100.00;102661.66;5093127;28;20544;-75
2022/12/18 08:39:07;;;;;;;44.67;19.25;;;;;;;-7.98;100.00;102663.50;5093076;28;20559;-75
2022/12/18 08:41:32;;;;;;;48.70;19.65;;;;;;;-7.92;100.00;102673.06;5092798;28;20032;-76
2022/12/18 08:46:43;;;;;;;43.90;17.35;;;;;;;-7.82;100.00;102703.41;5093331;28;20089;-74
2022/12/18 08:49:11;;;;;;;39.75;18.45;;;;;;;-7.79;100.00;102697.41;5093778;28;20047;-74
2022/12/18 08:51:36;;;;;;;45.70;18.15;;;;;;;-7.73;100.00;102694.91;5093678;28;20063;-75
2022/12/18 08:54:03;;;;;;;36.78;17.45;;;;;;;-7.68;100.00;102688.09;5093665;28;20071;-75
2022/12/18 08:56:29;;;;;;;40.38;17.45;;;;;;;-7.61;100.00;102683.88;5093176;28;20043;-76
2022/12/18 08:58:55;;;;;;;38.70;16.48;;;;;;;-7.56;100.00;102691.72;5092816;28;20044;-75
2022/12/18 09:01:21;;;;;;;35.55;17.58;;;;;;;-7.51;100.00;102697.81;5092968;28;20464;-76
2022/12/18 09:03:46;;;;;;;38.58;17.08;;;;;;;-7.47;100.00;102684.06;5092771;28;20437;-74
2022/12/18 09:06:17;;;;;;;33.53;16.55;;;;;;;-7.43;100.00;102680.69;5092442;28;20024;-74
2022/12/18 09:08:44;;;;;;;46.10;18.90;;;;;;;-7.37;100.00;102677.31;5075285;28;20024;-78
2022/12/18 09:11:24;;;;;;;32.08;15.90;;;;;;;-7.33;100.00;102674.78;5093490;28;20036;-74
2022/12/18 09:13:50;;;;;;;30.55;15.88;;;;;;;-7.29;100.00;102663.63;5092929;28;20024;-75
2022/12/18 09:16:17;;;;;;;38.78;16.23;;;;;;;-7.23;100.00;102652.47;5093490;28;20024;-76
2022/12/18 09:18:42;;;;;;;34.08;16.50;;;;;;;-7.20;100.00;102639.59;5096572;28;20032;-77
2022/12/18 09:21:13;;;;;;;35.70;16.52;;;;;;;-7.15;100.00;102637.03;5078617;28;20039;-75
2022/12/18 09:23:38;;;;;;;29.85;15.40;;;;;;;-7.09;100.00;102631.94;5096512;28;20380;-75
2022/12/18 09:26:04;;;;;;;30.58;16.17;;;;;;;-7.03;100.00;102638.91;5078322;28;20024;-78
2022/12/18 09:28:29;;;;;;;30.90;15.00;;;;;;;-6.98;100.00;102640.72;5096754;28;20031;-76
2022/12/18 09:30:55;;;;;;;38.13;16.50;;;;;;;-6.94;100.00;102626.06;5096334;28;20193;-77
2022/12/18 09:33:20;;;;;;;29.67;15.77;;;;;;;-6.88;100.00;102627.88;5096779;28;20028;-76
2022/12/18 09:35:46;;;;;;;30.05;15.02;;;;;;;-6.81;100.00;102634.84;5096270;28;20575;-76
2022/12/18 09:38:14;;;;;;;30.63;14.65;;;;;;;-6.78;100.00;102629.69;5096658;28;20028;-76
2022/12/18 09:40:47;;;;;;;34.80;16.02;;;;;;;-6.71;100.00;102638.41;5095714;28;20070;-74
2022/12/18 09:43:47;;;;;;;31.40;14.77;;;;;;;-6.66;100.00;102636.72;5095734;28;20058;-79
2022/12/18 09:46:20;;;;;;;29.10;14.55;;;;;;;-6.58;100.00;102648.03;5095639;28;20062;-76
2022/12/18 09:48:49;;;;;;;29.83;15.80;;;;;;;-6.51;100.00;102649.81;5095700;28;20059;-75
2022/12/18 09:51:19;;;;;;;30.90;15.38;;;;;;;-6.44;100.00;102650.75;5095856;28;20036;-77
2022/12/18 09:53:51;;;;;;;30.58;15.32;;;;;;;-6.41;100.00;102650.78;5095617;28;20028;-78
2022/12/18 09:56:22;;;;;;;25.67;14.98;;;;;;;-6.34;100.00;102638.72;5095883;28;20043;-77
2022/12/18 09:58:58;;;;;;;28.60;13.85;;;;;;;-6.27;100.00;102637.94;5095572;28;20054;-79
2022/12/18 10:01:24;;;;;;;25.52;13.55;;;;;;;-6.25;100.00;102629.31;5095783;28;20050;-79
2022/12/18 10:03:51;;;;;;;35.15;15.80;;;;;;;-6.23;100.00;102630.19;5095791;28;20044;-77
2022/12/18 10:06:43;;;;;;;26.23;14.68;;;;;;;-6.17;100.00;102618.16;5095777;28;20024;-77
2022/12/18 10:09:35;;;;;;;32.08;15.00;;;;;;;-6.11;100.00;102621.66;5077296;28;20032;-77
2022/12/18 10:12:12;;;;;;;31.20;15.30;;;;;;;-6.05;100.00;102620.84;5095689;28;20035;-78
2022/12/18 10:15:00;;;;;;;31.10;14.57;;;;;;;-6.03;100.00;102613.91;5077766;28;20342;-77
2022/12/18 10:17:47;;;;;;;32.20;13.90;;;;;;;-5.99;100.00;102607.06;5095761;28;20032;-78
2022/12/18 10:20:20;;;;;;;28.48;14.77;;;;;;;-5.95;100.00;102595.81;5095648;28;20035;-76
2022/12/18 10:23:13;;;;;;;31.90;15.02;;;;;;;-5.93;100.00;102599.28;5096024;28;20440;-80
2022/12/18 10:26:09;;;;;;;27.38;14.55;;;;;;;-5.85;100.00;102595.03;5095545;28;20368;-76
2022/12/18 10:28:37;;;;;;;27.83;15.20;;;;;;;-5.77;100.00;102588.13;5079973;28;20024;-81
2022/12/18 10:31:13;;;;;;;30.30;16.13;;;;;;;-5.72;100.00;102594.25;5095543;28;20472;-80
2022/12/18 10:33:39;;;;;;;28.65;15.40;;;;;;;-5.64;100.00;102588.19;5095899;28;20028;-77
2022/12/18 10:36:06;;;;;;;29.77;15.90;;;;;;;-5.59;100.00;102582.19;5095331;28;20051;-82
2022/12/18 10:38:31;;;;;;;25.35;15.30;;;;;;;-5.55;100.00;102573.56;5095263;28;20051;-78
2022/12/18 10:41:05;;;;;;;36.03;14.93;;;;;;;-5.50;100.00;102578.75;5095468;28;20128;-77
2022/12/18 10:43:34;;;;;;;27.95;15.23;;;;;;;-5.43;100.00;102579.63;5096075;28;20169;-80
2022/12/18 10:46:01;;;;;;;29.60;14.95;;;;;;;-5.39;100.00;102591.78;5095105;28;20090;-80
2022/12/18 10:48:27;;;;;;;26.88;14.65;;;;;;;-5.38;100.00;102586.59;5095638;28;20464;-79
2022/12/18 10:50:53;;;;;;;32.03;16.23;;;;;;;-5.28;100.00;102592.69;5095362;28;20113;-81
2022/12/18 10:53:27;;;;;;;28.02;14.95;;;;;;;-5.25;100.00;102584.91;5096263;28;20117;-80
2022/12/18 10:55:55;;;;;;;27.40;14.50;;;;;;;-5.18;100.00;102584.06;5104274;28;20028;-80
2022/12/18 10:58:28;;;;;;;27.30;14.75;;;;;;;-5.10;100.00;102585.84;5097598;28;20115;-83
2022/12/18 11:01:08;;;;;;;24.48;13.82;;;;;;;-5.06;100.00;102579.75;5076911;28;20028;-80
2022/12/18 11:03:40;;;;;;;28.83;14.45;;;;;;;-5.00;100.00;102572.88;5076869;28;20377;-80
2022/12/18 11:06:21;;;;;;;33.90;14.82;;;;;;;-4.95;100.00;102562.50;5094757;28;20510;-80
2022/12/18 11:09:19;;;;;;;25.50;13.60;;;;;;;-4.89;100.00;102564.22;5094811;28;20126;-80
2022/12/18 11:11:56;;;;;;;29.95;15.40;;;;;;;-4.84;100.00;102552.97;5094798;28;20028;-80